Mahopac, NY

10:10 PM EDT on October 16, 2019 (GMT -0400)
Mahopac | | Change Station
Active Advisory: Wind Advisory

Elev 823 ft 41.37 °N, 73.74 °W | Updated 13 minutes ago

Rain
Rain
56.5 °F
Feels Like 56.5 °F
N
5
Wind Variable Wind from ESE
Gusts 16.0 mph

Today
High -- | Low -- °F
--% Chance of Precip.
Yesterday
High -- | Low -- °F
Precip. -- in
Pressure 29.20 in
Visibility 5.0 miles
Clouds Overcast 1000 ft
Dew Point 56 °F
Humidity 97%
Rainfall 2.59 in
Snow Depth Not available.
7:07 AM 6:12 PM
Waning Gibbous, 90% visible
METAR KDXR 170153Z 09016G22KT 5SM -RA BR OVC010 14/13 A2920 RMK AO2 PK WND 09030/0122 SLP886 P0015 T01440133
Pressure 29.20 in
Visibility 5.0 miles
Clouds Overcast 1000 ft
Dew Point 56 °F
Humidity 97%
Rainfall 2.59 in
Snow Depth Not available.
7:07 AM 6:12 PM
Waning Gibbous, 90% visible
METAR KDXR 170153Z 09016G22KT 5SM -RA BR OVC010 14/13 A2920 RMK AO2 PK WND 09030/0122 SLP886 P0015 T01440133

Get Your Daily Forecast Email!

Thanks for signing up!

Be on the lookout for a verification email in your inbox.

You'll start receiving severe weather alerts in your inbox..

×

10-Day Weather Forecast

Almanac

Astronomy

Oct. 16, 2019 Rise Set
Actual Time
Civil Twilight
Nautical Twilight
Astronomical Twilight
Moon
Length of Visible Light
Length of Day
Tomorrow will be .
, % of the Moon is Illuminated

Today's Extremes

State Highs State Lows

Community

WunderPhotos

Category 6

Welcome to Category 6. This is the collective home for Weather Underground's featured writeups by Dr. Jeff Masters (right), Bob Henson (left), Chris Burt, and other regular contributors.

Nearby

Air Quality

  Air Quality AQ Index Pollutant
Not available.

Snow Depth

Station Depth Elevation

Earthquake Activity

City Distance Mag. Time & Date
Minimum magnitude displayed is 2.5.

Coastal Water Temperatures

Place Temperature

Stations

Nearby Weather Stations

Station Location Temp. Windchill Dew Point Humidity Wind Precip. Elev Updated Type
                   

Watches & Warnings

Wind Advisory
Issued: 3:25 PM EDT Oct. 16, 2019 – National Weather Service

... Wind Advisory in effect until 6 PM EDT Thursday...

The National Weather Service in Upton has issued a Wind Advisory,
which is in effect until 6 PM EDT Thursday.

* What... southeast winds 20 to 30 mph with gusts up to 50 mph this
evening along the coast, becoming west and expanding across the
entire area tonight into Thursday.

* Where... entire tri-state area.

* When... from 10 PM this evening to 6 PM EDT Thursday.

* Impacts... strong winds may blow down limbs, trees, and power
lines. Scattered power outages are expected.

Precautionary/preparedness actions...

A Wind Advisory is issued when sustained winds of 31 to 39 mph,
or gusts of 46 to 57 mph, are expected or occurring. Winds this
strong can make driving difficult, especially for high profile
vehicles, in open areas, and on elevated roads and bridges. Use
extra caution.